Tiempo atmosférico en la estación meteorológica de Salas, Asturias (240 m.)



Fecha
DESCASC
Temp. máxima en grados centígrados (hora)
DESCASC
Temp. mínima en grados centígrados (hora)
DESCASC
Temp. media en grados centígrados
DESCASC
Racha de viento máxima en m/sg (hora)
DESCASC
Velocidad máxima media en intervalos de 10 minutos(hora)
DESCASC
Precipitaciones diarias en mm
DESCASC
Precipitaciones de 00:00 a 06:00 en mm
DESCASC
Precipitaciones de 06:00 a 12:00 en mm
DESCASC
Precipitaciones de 12:00 a 18:00 en mm
DESCASC
Precipitaciones de 18:00 a 24:00 en mm
DESCASC

Gráficas

Temp. máximas Temp. mínimas Temp. medias Precipitaciones Rachas de viento máximas Velocidades máximas media en intervalos de 10 minutos

Datos horarios

Fecha y hora oficial Temperatura (ºC) Velocidad del viento (km/h) Dirección del viento Racha (km/h) Dirección de racha Precipitación (mm) Presión (hPa) Tendencia (hPa) Humedad (%)
2019-06-24 23:00:00 16.1 0 Calma 4 Nordeste 0 -- -- 98
2019-06-24 22:00:00 17.1 2 Norte 6 Este 0 -- -- 95
2019-06-24 21:00:00 18 3 Sudeste 8 Oeste 0 -- -- 95
2019-06-24 20:00:00 18 0 Calma 9 Este 0 -- -- 95
2019-06-24 19:00:00 18.3 4 Sudeste 6 Norte 0 -- -- 94
2019-06-24 18:00:00 18.2 3 Este 9 Este 0 -- -- 94
2019-06-24 17:00:00 18.1 2 Sudeste 8 Este 0.4 -- -- 95
2019-06-24 16:00:00 17.7 3 Sur 6 Sur 0.4 -- -- 96
2019-06-24 15:00:00 17.5 0 Calma 5 Nordeste 1.8 -- -- 97
2019-06-24 14:00:00 17.1 3 Este 7 Este 0.8 -- -- 97
2019-06-24 13:00:00 16.8 4 Este 8 Sur 2 -- -- 98
2019-06-24 12:00:00 16.7 3 Sudeste 5 Sudeste 0 -- -- 97
2019-06-24 11:00:00 16 3 Sur 5 Sur 0.2 -- -- 99
2019-06-24 10:00:00 15.7 4 Nordeste 7 Nordeste 0 -- -- 100
2019-06-24 09:00:00 15.3 4 Nordeste 10 Este 0 -- -- 100
2019-06-24 08:00:00 15.3 4 Nordeste 9 Sudoeste 0 -- -- 99
2019-06-24 07:00:00 15.3 0 Calma 6 Este 0.2 -- -- 99
2019-06-24 06:00:00 15.2 3 Noroeste 7 Este 0 -- -- 99
2019-06-24 05:00:00 15.3 0 Calma 6 Oeste 0 -- -- 99
2019-06-24 04:00:00 15.5 3 Nordeste 7 Nordeste 1.2 -- -- 99
2019-06-24 03:00:00 15.7 3 Oeste 7 Este 0.2 -- -- 98
2019-06-24 02:00:00 16 3 Norte 58 Sur 1.4 -- -- 97
2019-06-24 01:00:00 16.5 4 Nordeste 11 Norte 0 -- -- 92
2019-06-24 00:00:00 16.7 6 Norte 10 Noroeste 0 -- -- 91
2019-06-23 23:00:00 17 6 Norte 13 Norte 0 -- -- 91
2019-06-23 22:00:00 18 3 Norte 12 Norte 0 -- -- 90
2019-06-23 21:00:00 18.5 9 Norte 16 Norte 0 -- -- 89
2019-06-23 20:00:00 19.9 9 Norte 15 Nordeste 0 -- -- 88
2019-06-23 19:00:00 21.5 4 Norte 12 Nordeste 0 -- -- 83
2019-06-23 18:00:00 21.3 7 Norte 13 Nordeste 0 -- -- 83
2019-06-23 17:00:00 21.1 8 Nordeste 14 Nordeste 0 -- -- 84
2019-06-23 16:00:00 20.5 4 Nordeste 7 Nordeste 0 -- -- 85
2019-06-23 15:00:00 21 5 Nordeste 10 Sudeste 0 -- -- 83
2019-06-23 14:00:00 19.7 4 Este 9 Este 0.2 -- -- 85
2019-06-23 13:00:00 18 3 Sur 8 Este 1.4 -- -- 92
2019-06-23 12:00:00 17.3 3 Norte 5 Sudeste 2.2 -- -- 95
2019-06-23 11:00:00 17.3 0 Calma 4 Este 1.4 -- -- 94
2019-06-23 10:00:00 17.7 3 Oeste 8 Sudoeste 0 -- -- 88
2019-06-23 09:00:00 17 0 Calma 5 Noroeste 0 -- -- 93
2019-06-23 08:00:00 15.3 4 Oeste 8 Oeste 0 -- -- 95
2019-06-23 07:00:00 15.6 6 Norte 18 Sudoeste 0.2 -- -- 90
2019-06-23 06:00:00 16.2 9 Sudoeste 29 Sudoeste 0 -- -- 85
2019-06-23 05:00:00 15.7 7 Sudoeste 19 Oeste 0.6 -- -- 93
2019-06-23 04:00:00 15.3 3 Oeste 6 Oeste 0 -- -- 91
2019-06-23 03:00:00 15.2 2 Nordeste 5 Nordeste 0 -- -- 94
2019-06-23 02:00:00 15.4 2 Sudoeste 6 Nordeste 0 -- -- 91
2019-06-23 01:00:00 16 0 Calma 6 Nordeste 0 -- -- 90
2019-06-23 00:00:00 17 0 Calma 5 Nordeste 0 -- -- 88
2019-06-22 23:00:00 17.6 2 Noroeste 4 Sur 0 -- -- 81
2019-06-22 22:00:00 19 2 Norte 6 Noroeste 0 -- -- 76
2019-06-22 21:00:00 21 4 Noroeste 14 Noroeste 0 -- -- 62
2019-06-22 20:00:00 22.2 6 Norte 18 Oeste 0 -- -- 60
2019-06-22 19:00:00 24.3 4 Oeste 16 Nordeste 0 -- -- 58
2019-06-22 18:00:00 24.9 10 Nordeste 23 Nordeste 0 -- -- 60
2019-06-22 17:00:00 26.4 12 Nordeste 20 Nordeste 0 -- -- 64
2019-06-22 16:00:00 25.3 13 Nordeste 18 Nordeste 0 -- -- 67
2019-06-22 15:00:00 24.9 9 Norte 17 Nordeste 0 -- -- 63
2019-06-22 14:00:00 26 8 Nordeste 16 Nordeste 0 -- -- 61
2019-06-22 13:00:00 22.8 4 Sudeste 9 Nordeste 0 -- -- 76
2019-06-22 12:00:00 19.9 2 Sudoeste 5 Sur 0 -- -- 78
2019-06-22 11:00:00 18.5 3 Sur 7 Este 0 -- -- 82
2019-06-22 10:00:00 14.4 2 Sudeste 5 Sudeste 0 -- -- 97
2019-06-22 09:00:00 12.6 2 Sudoeste 4 Sudoeste 0 -- -- 100
2019-06-22 08:00:00 12 0 Calma 4 Sudeste 0 -- -- 100
2019-06-22 07:00:00 11.4 0 Calma 3 Sudoeste 0 -- -- 100
2019-06-22 06:00:00 11.4 0 Calma 4 Norte 0 -- -- 98
2019-06-22 05:00:00 12.3 2 Nordeste 3 Este 0 -- -- 96
2019-06-22 04:00:00 13.6 0 Calma 4 Sur 0 -- -- 94
2019-06-22 03:00:00 13.7 0 Calma 5 Oeste 0 -- -- 93
2019-06-22 02:00:00 13.9 0 Calma 12 Este 0 -- -- 92
2019-06-22 01:00:00 14.2 5 Este 10 Este 0 -- -- 91
2019-06-22 00:00:00 14.7 0 Calma 4 Oeste 0 -- -- 93
2019-06-21 23:00:00 14.9 0 Calma 6 Norte 0 -- -- 92
2019-06-21 22:00:00 15.2 5 Norte 10 Nordeste 0 -- -- 88
2019-06-21 21:00:00 15.8 4 Norte 11 Nordeste 0 -- -- 86
2019-06-21 20:00:00 16.2 7 Norte 15 Nordeste 0 -- -- 83
2019-06-21 19:00:00 17.2 7 Nordeste 15 Este 0 -- -- 79
2019-06-21 18:00:00 16.8 8 Norte 21 Nordeste 0 -- -- 83
2019-06-21 17:00:00 17.4 11 Nordeste 20 Nordeste 0 -- -- 81
2019-06-21 16:00:00 18.4 11 Nordeste 21 Norte 0 -- -- 78
2019-06-21 15:00:00 17.4 10 Nordeste 19 Este 0 -- -- 81
2019-06-21 14:00:00 17.2 4 Sur 15 Sur 0 -- -- 83
2019-06-21 13:00:00 16.3 4 Este 16 Este 0 -- -- 84
2019-06-21 12:00:00 14.4 3 Sudeste 9 Sudeste 0 -- -- 91
2019-06-21 11:00:00 13.5 7 Nordeste 13 Norte 0 -- -- 97
2019-06-21 10:00:00 13 6 Norte 13 Nordeste 0.2 -- -- 99
2019-06-21 09:00:00 12.5 9 Nordeste 15 Nordeste 0.4 -- -- 99
2019-06-21 08:00:00 12.4 4 Noroeste 14 Nordeste 0.2 -- -- 100
2019-06-21 07:00:00 12.5 9 Nordeste 15 Nordeste 1 -- -- 100
2019-06-21 06:00:00 12.6 0 Calma 4 Sudoeste 1.2 -- -- 100
2019-06-21 05:00:00 12.5 3 Oeste 6 Sudoeste 0.2 -- -- 100
2019-06-21 04:00:00 12.7 4 Sudoeste 8 Sudoeste 0.4 -- -- 100
2019-06-21 03:00:00 13.1 0 Calma 3 Sudoeste 0 -- -- 100
2019-06-21 02:00:00 13.2 2 Oeste 4 Sudeste 0.4 -- -- 100
2019-06-21 01:00:00 13.3 3 Oeste 4 Oeste 0.4 -- -- 100
2019-06-21 00:00:00 13.4 0 Calma 6 Oeste 0.4 -- -- 99
2019-06-20 23:00:00 13.4 4 Norte 8 Nordeste 0 -- -- 98
2019-06-20 22:00:00 13.7 0 Calma 4 Nordeste 0 -- -- 99
2019-06-20 21:00:00 13.7 0 Calma 8 Noroeste 0 -- -- 98
2019-06-20 20:00:00 13.7 5 Noroeste 13 Noroeste 0.2 -- -- 97
2019-06-20 19:00:00 14.1 6 Nordeste 12 Nordeste 0.2 -- -- 98
2019-06-20 18:00:00 14.4 4 Norte 12 Norte 0.4 -- -- 97
2019-06-20 17:00:00 14.5 6 Nordeste 13 Nordeste 0.2 -- -- 97
2019-06-20 16:00:00 14.6 6 Nordeste 13 Nordeste 0.2 -- -- 96
2019-06-20 15:00:00 15 5 Nordeste 14 Norte 0 -- -- 96
2019-06-20 14:00:00 14.6 8 Norte 15 Norte 0.2 -- -- 97
2019-06-20 13:00:00 14.4 8 Nordeste 19 Nordeste 0 -- -- 97
2019-06-20 12:00:00 14.3 10 Norte 16 Norte 0.4 -- -- 99
2019-06-20 11:00:00 14.1 7 Norte 14 Nordeste 0.4 -- -- 99
2019-06-20 10:00:00 14.6 9 Nordeste 14 Nordeste 0 -- -- 96
2019-06-20 09:00:00 14.2 3 Este 11 Norte 0 -- -- 97
2019-06-20 08:00:00 13.9 3 Norte 8 Nordeste 0 -- -- 98
2019-06-20 07:00:00 14.2 0 Calma 2 Sur 0 -- -- 99
2019-06-20 06:00:00 14.1 0 Calma 5 Nordeste 0 -- -- 99
2019-06-20 05:00:00 14.2 2 Nordeste 4 Noroeste 0 -- -- 98
2019-06-20 04:00:00 14.3 0 Calma 2 Oeste 0 -- -- 98
2019-06-20 03:00:00 14.4 0 Calma 2 Este 0.8 -- -- 98
2019-06-20 02:00:00 14.4 2 Nordeste 2 Nordeste 1.4 -- -- 97
2019-06-20 01:00:00 14.6 0 Calma 3 Sudeste 0.2 -- -- 97
2019-06-20 00:00:00 14.9 0 Calma 2 Sudeste 0.2 -- -- 96
2019-06-19 23:00:00 15 0 Calma 5 Nordeste 0 -- -- 95
2019-06-19 22:00:00 15.3 3 Nordeste 10 Norte 0 -- -- 91
2019-06-19 21:00:00 16 4 Este 9 Sur 0 -- -- 88
2019-06-19 20:00:00 16.1 3 Este 12 Noroeste 0 -- -- 88
2019-06-19 19:00:00 16.8 3 Sudeste 17 Nordeste 0 -- -- 86
2019-06-19 18:00:00 18.4 10 Nordeste 18 Nordeste 0 -- -- 81
2019-06-19 17:00:00 18.6 10 Nordeste 19 Nordeste 0 -- -- 80
2019-06-19 16:00:00 18.9 10 Nordeste 22 Nordeste 0 -- -- 81
2019-06-19 15:00:00 19.6 11 Nordeste -- -- -- -- -- 78
2019-06-19 14:00:00 20.8 5 Oeste 20 Oeste 0 -- -- 65
2019-06-19 13:00:00 19.6 5 Oeste 12 Oeste 0 -- -- 71
2019-06-19 12:00:00 18.6 0 Calma 5 Sur 0 -- -- 86
2019-06-19 11:00:00 17.1 3 Sur 8 Sur 0 -- -- 92
2019-06-19 10:00:00 14.8 3 Sudoeste 5 Sudoeste 0 -- -- 99
2019-06-19 09:00:00 14.2 0 Calma 3 Oeste 0 -- -- 100
2019-06-19 08:00:00 12.7 2 Oeste 4 Norte 0 -- -- 100
2019-06-19 07:00:00 11.4 3 Norte 6 Oeste 0 -- -- 100
2019-06-19 06:00:00 11.6 3 Nordeste 5 Oeste 0 -- -- 100
2019-06-19 05:00:00 11.2 0 Calma 4 Oeste 0.2 -- -- 100
2019-06-19 04:00:00 11.8 0 Calma 5 Oeste 0 -- -- 100
2019-06-19 03:00:00 12.2 0 Calma 5 Oeste 0 -- -- 99
2019-06-19 02:00:00 12.7 3 Sudeste 9 Sudoeste 0 -- -- 99
2019-06-19 01:00:00 13.5 3 Noroeste 5 Norte 0 -- -- 97
2019-06-19 00:00:00 14.8 2 Sudoeste 5 Oeste 0.8 -- -- 97
2019-06-18 23:00:00 15.1 2 Este 6 Oeste 0.2 -- -- 96
2019-06-18 22:00:00 15.6 2 Noroeste 19 Norte 0 -- -- 92
2019-06-18 21:00:00 -- -- -- -- -- -- -- -- --
2019-06-18 20:00:00 16.7 11 Norte 19 Norte 1.2 -- -- 89
2019-06-18 19:00:00 19.7 6 Norte 16 Norte 0.4 -- -- 84
2019-06-18 18:00:00 20.9 6 Norte 19 Nordeste 0 -- -- 75
2019-06-18 17:00:00 22.9 5 Sudeste 16 Sudeste 0 -- -- 68
2019-06-18 16:00:00 22.3 6 Nordeste 16 Este 0 -- -- 79
2019-06-18 15:00:00 20.7 9 Norte 19 Norte 0 -- -- 78
2019-06-18 14:00:00 20.9 8 Este 17 Sudeste 0 -- -- 76
2019-06-18 13:00:00 22.2 5 Este 22 Noroeste 0 -- -- 71
2019-06-18 12:00:00 21.1 7 Norte 15 Oeste 0 -- -- 63
2019-06-18 11:00:00 17.9 3 Sudoeste 8 Sur 0 -- -- 87
2019-06-18 10:00:00 16.3 2 Sur 5 Sudeste 0 -- -- 91
2019-06-18 09:00:00 13.8 2 Sur 4 Sur 0 -- -- 100
2019-06-18 08:00:00 12.3 0 Calma 3 Oeste 0 -- -- 100
2019-06-18 07:00:00 12.2 0 Calma 3 Nordeste 0 -- -- 100
2019-06-18 06:00:00 12.1 0 Calma 2 Este 0 -- -- 100
2019-06-18 05:00:00 12.4 0 Calma 4 Oeste 0 -- -- 99
2019-06-18 04:00:00 12.9 0 Calma 8 Oeste 0 -- -- 99
2019-06-18 03:00:00 13.6 0 Calma 7 Oeste 0 -- -- 98
2019-06-18 02:00:00 14.3 2 Norte 7 Nordeste 0 -- -- 97
2019-06-18 01:00:00 14.8 3 Oeste 6 Oeste 0 -- -- 97
2019-06-18 00:00:00 15.1 2 Sudoeste 4 Este 0 -- -- 95
2019-06-17 23:00:00 15.5 2 Oeste 6 Norte 0 -- -- 94
2019-06-17 22:00:00 16.3 3 Nordeste 9 Este 0 -- -- 91
2019-06-17 21:00:00 17.1 2 Sur 8 Noroeste 0 -- -- 88
2019-06-17 20:00:00 17.3 0 Calma 10 Norte 0 -- -- 87
2019-06-17 19:00:00 17.6 7 Nordeste 15 Norte 0 -- -- 86
2019-06-17 18:00:00 18.3 5 Nordeste 15 Nordeste 0 -- -- 82
2019-06-17 17:00:00 18.9 6 Nordeste 15 Nordeste 0 -- -- 81
2019-06-17 16:00:00 18.7 10 Nordeste 19 Nordeste 0 -- -- 81
2019-06-17 15:00:00 21.1 9 Nordeste 20 Este 0 -- -- 74
2019-06-17 14:00:00 20.4 7 Este 15 Este 0 -- -- 70
2019-06-17 13:00:00 18.1 6 Sudeste 15 Sudeste 0 -- -- 76
2019-06-17 12:00:00 16.5 5 Este 10 Este -- -- -- 81
2019-06-17 11:00:00 15.6 3 Noroeste 6 Norte 0 -- -- 84
2019-06-17 10:00:00 15 3 Nordeste 7 Sur 0 -- -- 86
2019-06-17 09:00:00 14.6 3 Noroeste 11 Oeste 0 -- -- 88
2019-06-17 08:00:00 14.4 2 Sudoeste 5 Norte 0 -- -- 93
2019-06-17 07:00:00 14.3 0 Calma 2 Sur 0 -- -- 94
2019-06-17 06:00:00 14.3 0 Calma 4 Nordeste 0 -- -- 94
2019-06-17 05:00:00 14.4 2 Sudoeste 4 Oeste 0 -- -- 93
2019-06-17 04:00:00 14.6 3 Este 6 Sudeste 0 -- -- 92
2019-06-17 03:00:00 14.6 2 Nordeste 5 Nordeste 0 -- -- 92
2019-06-17 02:00:00 14.7 3 Norte 7 Sur 0 -- -- 91
2019-06-17 01:00:00 14.8 3 Nordeste 8 Norte 0 -- -- 91
2019-06-17 00:00:00 14.9 5 Norte 11 Norte 0 -- -- 89
2019-06-16 23:00:00 15.1 5 Norte 10 Norte 0 -- -- 90
2019-06-16 22:00:00 15.3 7 Norte 15 Norte 0 -- -- 88
2019-06-16 21:00:00 16.5 9 Norte 18 Norte 0 -- -- 84
2019-06-16 20:00:00 17.6 12 Norte 20 Norte 0 -- -- 80
2019-06-16 19:00:00 19.8 12 Norte 21 Nordeste 0 -- -- 73
2019-06-16 18:00:00 19.3 13 Nordeste 24 Nordeste 0 -- -- 74
2019-06-16 17:00:00 21.5 15 Norte 24 Norte 0 -- -- 70
2019-06-16 16:00:00 22.6 13 Nordeste 25 Nordeste 0 -- -- 66
2019-06-16 15:00:00 22.7 10 Nordeste 22 Este 0 -- -- 63
2019-06-16 14:00:00 21.9 11 Nordeste 23 Nordeste 0 -- -- 57
2019-06-16 13:00:00 21.1 9 Nordeste 17 Nordeste 0 -- -- 65
2019-06-16 12:00:00 19.7 6 Este 13 Este 0 -- -- 61
2019-06-16 11:00:00 17.9 5 Sudeste 14 Sur 0 -- -- 68
2019-06-16 10:00:00 15.3 3 Sudoeste 6 Sudoeste 0 -- -- 75
2019-06-16 09:00:00 12.5 0 Calma 3 Sur 0 -- -- 86
2019-06-16 08:00:00 9.1 0 Calma 4 Noroeste 0 -- -- 99
2019-06-16 07:00:00 8.7 3 Nordeste 4 Nordeste 0 -- -- 97
2019-06-16 06:00:00 9.6 0 Calma 2 Norte 0 -- -- 95
2019-06-16 05:00:00 10.8 0 Calma 2 Sudoeste 0 -- -- 92
2019-06-16 04:00:00 12 0 Calma 2 Norte 0 -- -- 90
2019-06-16 03:00:00 12.5 0 Calma 3 Sudeste 0 -- -- 92
2019-06-16 02:00:00 12.8 0 Calma 2 Sudeste 0 -- -- 90
2019-06-16 01:00:00 13 0 Calma 2 Norte 0 -- -- 89
2019-06-16 00:00:00 13.3 0 Calma 4 Nordeste 0 -- -- 88
2019-06-15 23:00:00 13.6 4 Nordeste 7 Nordeste 0 -- -- 86
2019-06-15 22:00:00 14.1 4 Nordeste 11 Nordeste 0 -- -- 84
2019-06-15 21:00:00 14.7 7 Este 13 Este 0 -- -- 80
2019-06-15 20:00:00 15.4 5 Nordeste 17 Nordeste 0 -- -- 77
2019-06-15 19:00:00 16 10 Nordeste 21 Nordeste 0 -- -- 73
2019-06-15 18:00:00 17.7 10 Nordeste 21 Nordeste 0 -- -- 70
2019-06-15 17:00:00 17.9 12 Nordeste 19 Nordeste 0 -- -- 66
2019-06-15 16:00:00 19.5 12 Nordeste 24 Nordeste 0 -- -- 62
2019-06-15 15:00:00 19.1 14 Nordeste 26 Nordeste 0 -- -- 66
2019-06-15 14:00:00 20.1 12 Oeste 31 Oeste 0 -- -- 50
2019-06-15 13:00:00 19.9 10 Noroeste 29 Oeste 0 -- -- 58
2019-06-15 12:00:00 16.9 8 Oeste 25 Noroeste 0 -- -- 62
2019-06-15 11:00:00 16.4 8 Oeste 23 Sur 0 -- -- 69
2019-06-15 10:00:00 14.7 4 Sur 9 Sur 0 -- -- 78
2019-06-15 09:00:00 11.8 3 Oeste 6 Oeste 0 -- -- 93
2019-06-15 08:00:00 10.2 3 Oeste 5 Oeste 0 -- -- 97
2019-06-15 07:00:00 9.8 0 Calma 4 Nordeste 0 -- -- 98
2019-06-15 06:00:00 9.6 0 Calma 3 Noroeste 0 -- -- 98
2019-06-15 05:00:00 9.1 3 Noroeste 4 Este 0 -- -- 99
2019-06-15 04:00:00 8.8 3 Nordeste 5 Norte 0 -- -- 96
2019-06-15 03:00:00 9.7 0 Calma 5 Nordeste 0 -- -- 92
2019-06-15 02:00:00 10.9 0 Calma 5 Este 0 -- -- 91
2019-06-15 01:00:00 11.5 4 Oeste 5 Oeste 0 -- -- 87
2019-06-15 00:00:00 12.2 2 Norte 9 Oeste 0 -- -- 86
2019-06-14 23:00:00 12.7 3 Norte 8 Noroeste 0 -- -- 82
2019-06-14 22:00:00 13.4 0 Calma 4 Oeste 0 -- -- 88
2019-06-14 21:00:00 14.2 3 Nordeste 8 Sudeste 0 -- -- 84
2019-06-14 20:00:00 14.6 2 Este 9 Sudeste 0 -- -- 78
2019-06-14 19:00:00 14.8 4 Sudeste 13 Este 0 -- -- 79
2019-06-14 18:00:00 15.2 5 Nordeste 15 Norte 0 -- -- 80
2019-06-14 17:00:00 16.1 8 Nordeste 13 Nordeste 0 -- -- 76
2019-06-14 16:00:00 16.6 6 Nordeste 18 Nordeste 0 -- -- 75
2019-06-14 15:00:00 15.7 10 Nordeste 17 Norte 0 -- -- 77
2019-06-14 14:00:00 16 12 Nordeste 21 Nordeste 0 -- -- 75
2019-06-14 13:00:00 16.2 9 Nordeste 18 Nordeste 0 -- -- 74
2019-06-14 12:00:00 16 7 Este 13 Nordeste 0 -- -- 78
2019-06-14 11:00:00 14.5 4 Este 14 Este 0 -- -- 80
2019-06-14 10:00:00 14.1 4 Sudeste 9 Sur 0 -- -- 84
2019-06-14 09:00:00 10.7 3 Sur 4 Sudeste 0 -- -- 93
2019-06-14 08:00:00 8.4 2 Sudoeste 5 Sudoeste 0 -- -- 100
2019-06-14 07:00:00 7.6 2 Oeste 5 Oeste 0 -- -- 99
2019-06-14 06:00:00 8.2 0 Calma 2 Norte 0 -- -- 97
2019-06-14 05:00:00 9.3 0 Calma 3 Nordeste 0 -- -- 97
2019-06-14 04:00:00 9.9 0 Calma 2 Sudeste 0 -- -- 97
2019-06-14 03:00:00 10.2 0 Calma 2 Oeste 0 -- -- 96
2019-06-14 02:00:00 10.4 0 Calma 3 Nordeste 0 -- -- 95
2019-06-14 01:00:00 10.8 0 Calma 2 Nordeste 0 -- -- 94
2019-06-14 00:00:00 11.2 0 Calma 4 Noroeste 0 -- -- 93
2019-06-13 23:00:00 11.7 0 Calma 2 Noroeste 0 -- -- 91
2019-06-13 22:00:00 12.2 0 Calma 4 Noroeste 0 -- -- 90
2019-06-13 21:00:00 12.7 0 Calma 4 Sudeste 0 -- -- 86
2019-06-13 20:00:00 12.9 0 Calma 3 Este 0 -- -- 83
2019-06-13 19:00:00 12.9 3 Este 6 Nordeste 0 -- -- 82
2019-06-13 18:00:00 12.8 4 Nordeste 11 Norte 0 -- -- 84
2019-06-13 17:00:00 13 3 Nordeste 17 Nordeste 0 -- -- 81
2019-06-13 16:00:00 13.3 8 Norte 22 Nordeste 0 -- -- 79
2019-06-13 15:00:00 15.7 13 Nordeste 22 Nordeste 0 -- -- 73
2019-06-13 14:00:00 15.4 14 Nordeste 22 Este 0 -- -- 74
2019-06-13 13:00:00 16.4 4 Nordeste 12 Norte 0 -- -- 66
2019-06-13 12:00:00 15.1 5 Nordeste 13 Norte 0 -- -- 69
2019-06-13 11:00:00 16.6 7 Este 13 Sur 0 -- -- 56
2019-06-13 10:00:00 14.1 6 Sudeste 10 Sudeste 0 -- -- 75
2019-06-13 09:00:00 11.7 3 Sudeste 5 Este 0 -- -- 89
2019-06-13 08:00:00 9.2 2 Oeste 4 Oeste 0 -- -- 98
2019-06-13 07:00:00 9.6 0 Calma 2 Sudeste 0 -- -- 95
2019-06-13 06:00:00 10 0 Calma 2 Nordeste 0 -- -- 96
2019-06-13 05:00:00 10.3 2 Nordeste 3 Oeste 0 -- -- 95
2019-06-13 04:00:00 10.7 0 Calma 4 Oeste 0 -- -- 95
2019-06-13 03:00:00 10.9 0 Calma 4 Noroeste 0 -- -- 93
2019-06-13 02:00:00 11 0 Calma 5 Nordeste 0 -- -- 92
2019-06-13 01:00:00 11.3 0 Calma 5 Sudoeste 0 -- -- 90
2019-06-13 00:00:00 11.4 3 Oeste 4 Oeste 0 -- -- 89
2019-06-12 23:00:00 11.7 2 Norte 6 Norte 0 -- -- 89
2019-06-12 22:00:00 12.1 4 Norte 9 Norte 0 -- -- 83
2019-06-12 21:00:00 12.8 4 Nordeste 16 Nordeste 0 -- -- 78
2019-06-12 20:00:00 13.5 9 Nordeste 19 Norte 0 -- -- 75
2019-06-12 19:00:00 14.3 10 Nordeste 24 Nordeste 0 -- -- 72
2019-06-12 18:00:00 15.3 13 Nordeste 25 Nordeste 0 -- -- 71
2019-06-12 17:00:00 16.6 4 Nordeste 19 Nordeste 0 -- -- 65
2019-06-12 16:00:00 18.1 8 Norte 23 Oeste 0 -- -- 61
2019-06-12 15:00:00 16.4 9 Oeste 19 Oeste 0 -- -- 67
2019-06-12 14:00:00 15.3 8 Oeste 24 Oeste 0 -- -- 62
2019-06-12 13:00:00 14.2 8 Sudoeste 22 Oeste 0 -- -- 66
2019-06-12 12:00:00 13.3 8 Oeste 21 Oeste 0 -- -- 73
2019-06-12 11:00:00 12.5 10 Oeste 22 Oeste 0 -- -- 74
2019-06-12 10:00:00 11.2 3 Nordeste 8 Sur 0 -- -- 86
2019-06-12 09:00:00 9.3 3 Oeste 12 Sudoeste 0 -- -- 93
2019-06-12 08:00:00 8.3 5 Norte 26 Sudoeste 0 -- -- 93
2019-06-12 07:00:00 8.2 15 Sudoeste 25 Sudoeste 0 -- -- 93
2019-06-12 06:00:00 7 2 Noroeste 6 Nordeste 0.2 -- -- 98
2019-06-12 05:00:00 7.8 3 Este 8 Norte 1 -- -- 99
2019-06-12 04:00:00 6.8 5 Norte 9 Norte 0 -- -- 98
2019-06-12 03:00:00 7.5 0 Calma 15 Oeste 0 -- -- 94
2019-06-12 02:00:00 8.3 9 Oeste 15 Oeste 0.4 -- -- 96
2019-06-12 01:00:00 8.4 8 Oeste 14 Oeste 0.4 -- -- 96
2019-06-12 00:00:00 9 7 Oeste 15 Oeste 0.2 -- -- 93
2019-06-11 23:00:00 10.7 12 Oeste 22 Oeste 0.4 -- -- 88
2019-06-11 22:00:00 10.8 3 Oeste 14 Oeste 0 -- -- 89
2019-06-11 21:00:00 12 4 Sudoeste 17 Oeste 0.2 -- -- 86
2019-06-11 20:00:00 13.2 6 Sudoeste 25 Oeste 0 -- -- 77
2019-06-11 19:00:00 14.3 12 Oeste 24 Oeste 0 -- -- 71
2019-06-11 18:00:00 14.6 4 Nordeste 16 Sudoeste 0 -- -- 70
2019-06-11 17:00:00 14.8 9 Oeste 25 Oeste 0 -- -- 68
2019-06-11 16:00:00 15.7 11 Oeste 38 Noroeste 0 -- -- 63
2019-06-11 15:00:00 15.1 12 Oeste 24 Oeste 0 -- -- 68
2019-06-11 14:00:00 14.5 9 Sudoeste 32 Sudoeste 0 -- -- 70
2019-06-11 13:00:00 14.7 5 Sudoeste 12 Sudoeste 0 -- -- 74
2019-06-11 12:00:00 12.8 5 Sur 24 Sudoeste 1.6 -- -- 87
2019-06-11 11:00:00 12.6 9 Oeste 19 Oeste 0 -- -- 78
2019-06-11 10:00:00 11.1 3 Oeste 10 Sudoeste 0.2 -- -- 89
2019-06-11 09:00:00 9.3 3 Oeste 15 Oeste 0.2 -- -- 98
2019-06-11 08:00:00 8.3 4 Oeste 6 Oeste 0 -- -- 99
2019-06-11 07:00:00 8.1 3 Noroeste 9 Sudoeste 0 -- -- 97
2019-06-11 06:00:00 8.9 3 Oeste 9 Norte 0.2 -- -- 97
2019-06-11 05:00:00 9.4 2 Noroeste 6 Sur 0.2 -- -- 98
2019-06-11 04:00:00 9.9 3 Noroeste 8 Nordeste 2.6 -- -- 99
2019-06-11 03:00:00 10.1 0 Calma 6 Sudoeste 0.4 -- -- 98
2019-06-11 02:00:00 10.3 0 Calma 4 Sudeste 0.2 -- -- 98
2019-06-11 01:00:00 10.4 3 Norte 5 Oeste 1 -- -- 97
2019-06-11 00:00:00 10.7 3 Oeste 7 Norte 1 -- -- 96
2019-06-10 23:00:00 11 3 Oeste 6 Oeste 0 -- -- 92
2019-06-10 22:00:00 11.5 4 Oeste 6 Sudoeste 0 -- -- 88
2019-06-10 21:00:00 12.2 4 Sudoeste 15 Nordeste 0 -- -- 80
2019-06-10 20:00:00 13.3 3 Este 12 Este 0 -- -- 75
2019-06-10 19:00:00 13.7 4 Este 21 Norte 0 -- -- 74
2019-06-10 18:00:00 14.3 6 Nordeste 28 Nordeste 0 -- -- 73
2019-06-10 17:00:00 15.2 13 Nordeste 30 Nordeste 0 -- -- 71
2019-06-10 16:00:00 17.2 8 Norte 24 Nordeste 0 -- -- 64
2019-06-10 15:00:00 17.1 9 Oeste 23 Oeste 0 -- -- 60
2019-06-10 14:00:00 16.9 5 Nordeste 19 Nordeste 0 -- -- 64
2019-06-10 13:00:00 16.8 10 Nordeste 16 Norte 0 -- -- 73
2019-06-10 12:00:00 15.4 4 Sudeste 12 Nordeste 0 -- -- 73
2019-06-10 11:00:00 13.9 4 Sudoeste 9 Sudoeste 0 -- -- 82
2019-06-10 10:00:00 10.6 0 Calma 4 Sur 0 -- -- 100
2019-06-10 09:00:00 8.4 0 Calma 3 Sur 0 -- -- 100
2019-06-10 08:00:00 7.3 0 Calma 2 Sur 0 -- -- 100
2019-06-10 07:00:00 6.3 0 Calma 3 Este 0 -- -- 100
2019-06-10 06:00:00 5.8 0 Calma 2 Nordeste 0 -- -- 100
2019-06-10 05:00:00 6.4 0 Calma 4 Nordeste 0 -- -- 100
2019-06-10 04:00:00 7.7 0 Calma 4 Nordeste 0 -- -- 100
2019-06-10 03:00:00 7.6 2 Nordeste 12 Oeste 0 -- -- 99
2019-06-10 02:00:00 8.4 5 Oeste 10 Oeste 0 -- -- 98
2019-06-10 01:00:00 9 2 Oeste 7 Noroeste 0 -- -- 98
2019-06-10 00:00:00 10.1 2 Oeste 4 Nordeste 0 -- -- 96
2019-06-09 23:00:00 10.8 0 Calma 3 Oeste 0 -- -- 96
2019-06-09 22:00:00 11.5 0 Calma 5 Sudoeste 0 -- -- 95
2019-06-09 21:00:00 11.6 5 Sur 6 Sur 0 -- -- 94
2019-06-09 20:00:00 11.7 2 Sudoeste 9 Norte 0 -- -- 94
2019-06-09 19:00:00 12.1 3 Norte 8 Oeste 0 -- -- 89
2019-06-09 18:00:00 12.1 4 Norte 12 Nordeste 0 -- -- 91
2019-06-09 17:00:00 12.3 3 Noroeste 12 Nordeste 0 -- -- 89
2019-06-09 16:00:00 12.5 6 Nordeste 15 Nordeste 0 -- -- 94
2019-06-09 15:00:00 12.4 4 Oeste 11 Sudoeste 0.4 -- -- 92
2019-06-09 14:00:00 12.1 4 Noroeste 20 Norte 0 -- -- 94
2019-06-09 13:00:00 12.5 10 Norte 20 Nordeste 0 -- -- 93
2019-06-09 12:00:00 13.2 5 Norte 12 Nordeste 0 -- -- 95
2019-06-09 11:00:00 12.1 4 Noroeste 9 Oeste 0.2 -- -- 98
2019-06-09 10:00:00 11.3 5 Norte 13 Norte 0.4 -- -- 99
2019-06-09 09:00:00 11.3 0 Calma 5 Nordeste 0.8 -- -- 99
2019-06-09 08:00:00 11.2 2 Sudoeste 3 Sur 0.2 -- -- 98
2019-06-09 07:00:00 11.3 0 Calma 3 Sudoeste 0.2 -- -- 98
2019-06-09 06:00:00 11.2 3 Oeste 5 Oeste 0 -- -- 98
2019-06-09 05:00:00 11.3 0 Calma 4 Este 0 -- -- 98
2019-06-09 04:00:00 11.3 0 Calma 4 Oeste 0 -- -- 98
2019-06-09 03:00:00 11.4 0 Calma 4 Noroeste 0 -- -- 97
2019-06-09 02:00:00 11.5 0 Calma 5 Noroeste 0 -- -- 97
2019-06-09 01:00:00 11.6 2 Este 4 Este 0 -- -- 97
2019-06-09 00:00:00 11.6 0 Calma 11 Norte 0 -- -- 95
2019-06-08 23:00:00 11.5 5 Norte 15 Nordeste 0 -- -- 95
2019-06-08 22:00:00 11.5 7 Norte 13 Nordeste 0 -- -- 96
2019-06-08 21:00:00 11.9 5 Norte 11 Nordeste 0.6 -- -- 95
2019-06-08 20:00:00 12.4 4 Norte 14 Este 0.2 -- -- 92
2019-06-08 19:00:00 12.8 7 Norte 16 Norte 0 -- -- 86
2019-06-08 18:00:00 13.1 5 Norte 18 Nordeste 0 -- -- 83
2019-06-08 17:00:00 13.6 11 Nordeste 18 Nordeste 0 -- -- 81
2019-06-08 16:00:00 14.6 10 Norte 24 Este 0 -- -- 77
2019-06-08 15:00:00 15.8 11 Nordeste 24 Norte 0 -- -- 69
2019-06-08 14:00:00 16.5 11 Nordeste 20 Nordeste 0 -- -- 68
2019-06-08 13:00:00 16.9 9 Sudeste 16 Sudeste 0 -- -- 63
2019-06-08 12:00:00 15.9 6 Este 14 Sudeste 0 -- -- 69
2019-06-08 11:00:00 13.7 3 Este 6 Este 0 -- -- 73
2019-06-08 10:00:00 10.4 2 Sur 5 Sur 0 -- -- 89
2019-06-08 09:00:00 8.2 2 Oeste 8 Oeste 0 -- -- 98
2019-06-08 08:00:00 6.3 2 Oeste 6 Noroeste 0 -- -- 100
2019-06-08 07:00:00 5.5 2 Nordeste 6 Oeste 0 -- -- 98
2019-06-08 06:00:00 6.1 0 Calma 6 Sudoeste 0 -- -- 99
2019-06-08 05:00:00 6.1 0 Calma 3 Sudoeste 0 -- -- 99
2019-06-08 04:00:00 6 0 Calma 3 Este 0 -- -- 99
2019-06-08 03:00:00 6.1 2 Noroeste 4 Oeste 0 -- -- 99
2019-06-08 02:00:00 6.6 0 Calma 4 Norte 0 -- -- 97
2019-06-08 01:00:00 7.4 2 Sudoeste 8 Nordeste 0 -- -- 97
2019-06-08 00:00:00 8.2 3 Este 6 Nordeste 0 -- -- 96
2019-06-07 23:00:00 9.6 0 Calma 6 Norte 0 -- -- 94
2019-06-07 22:00:00 11.6 2 Nordeste 8 Oeste 0 -- -- 91
2019-06-07 21:00:00 12.6 0 Calma 10 Nordeste 0 -- -- 88
2019-06-07 20:00:00 12.4 5 Noroeste 24 Nordeste 0.6 -- -- 87
2019-06-07 19:00:00 14.8 9 Norte 21 Oeste 0 -- -- 75
2019-06-07 18:00:00 13.5 12 Oeste 25 Oeste 0 -- -- 80
2019-06-07 17:00:00 13.4 5 Noroeste 16 Oeste 0.4 -- -- 86
2019-06-07 16:00:00 12.9 5 Oeste 22 Oeste 1.8 -- -- 81
2019-06-07 15:00:00 13.5 12 Oeste 35 Sudoeste 0.4 -- -- 77
2019-06-07 14:00:00 14.4 13 Oeste 37 Sudoeste 0.8 -- -- 75
2019-06-07 13:00:00 14.9 14 Oeste 32 Sudoeste 0 -- -- 61
2019-06-07 12:00:00 12.2 17 Oeste 34 Sudoeste 0.2 -- -- 75
2019-06-07 11:00:00 13.5 14 Sudoeste 39 Sudoeste 0 -- -- 63
2019-06-07 10:00:00 12.6 12 Sudoeste 28 Oeste 0 -- -- 66
2019-06-07 09:00:00 11.5 10 Oeste 21 Oeste 0 -- -- 67
2019-06-07 08:00:00 10.2 8 Sudoeste 33 Oeste 0 -- -- 73
2019-06-07 07:00:00 10 17 Oeste 37 Oeste 0.2 -- -- 75
2019-06-07 06:00:00 9.6 19 Oeste 45 Noroeste 0.2 -- -- 81
2019-06-07 05:00:00 9.8 15 Sudoeste 36 Sudoeste 0 -- -- 75
2019-06-07 04:00:00 10.1 16 Sudoeste 40 Sudoeste 0 -- -- 73
2019-06-07 03:00:00 10.2 14 Sudoeste 44 Sur 0 -- -- 71
2019-06-07 02:00:00 10.7 17 Sudoeste 42 Sudoeste 0 -- -- 73
2019-06-07 01:00:00 11.1 15 Sudoeste 46 Sudoeste 0 -- -- 74
2019-06-07 00:00:00 12.1 19 Oeste 44 Oeste 0 -- -- 66
2019-06-06 23:00:00 12.8 21 Sudoeste 50 Oeste 0 -- -- 67
2019-06-06 22:00:00 13.6 15 Sudoeste 39 Oeste 0 -- -- 64
2019-06-06 21:00:00 14.5 13 Sudoeste 33 Oeste 0 -- -- 68
2019-06-06 20:00:00 13.9 4 Sudoeste 34 Oeste 1.4 -- -- 83
2019-06-06 19:00:00 16.8 13 Oeste 29 Sudeste 0.2 -- -- 69
2019-06-06 18:00:00 17.6 17 Sudeste 38 Sur 0.6 -- -- 59
2019-06-06 17:00:00 16.5 9 Oeste 24 Noroeste 0.2 -- -- 72
2019-06-06 16:00:00 18.7 8 Oeste 47 Sudeste 0 -- -- 55
2019-06-06 15:00:00 19 12 Sur 24 Sur 0 -- -- 49
2019-06-06 14:00:00 19.2 9 Este 20 Este 0 -- -- 51
2019-06-06 13:00:00 17 6 Este 14 Sur 0 -- -- 62
2019-06-06 12:00:00 15 6 Sudeste 10 Sudeste 0 -- -- 73
2019-06-06 11:00:00 13 4 Sur 10 Sur 0 -- -- 81
2019-06-06 10:00:00 11.5 3 Sudeste 8 Sur 0 -- -- 88
2019-06-06 09:00:00 8.7 0 Calma 5 Este 0 -- -- 100
2019-06-06 08:00:00 6.9 3 Nordeste 7 Nordeste 0 -- -- 100
2019-06-06 07:00:00 6 4 Nordeste 8 Nordeste 0 -- -- 100
2019-06-06 06:00:00 5.4 0 Calma 3 Oeste 0 -- -- 100
2019-06-06 05:00:00 5.4 0 Calma 5 Oeste 0 -- -- 99
2019-06-06 04:00:00 5.8 2 Oeste 6 Nordeste 0 -- -- 98
2019-06-06 03:00:00 6.9 0 Calma 8 Oeste 0 -- -- 97
2019-06-06 02:00:00 8.2 2 Nordeste 4 Nordeste 0 -- -- 97
2019-06-06 01:00:00 9 0 Calma 6 Este 0 -- -- 98
2019-06-06 00:00:00 9.6 4 Noroeste 8 Nordeste 0 -- -- 98
2019-06-05 23:00:00 10.1 3 Oeste 6 Sudoeste 0 -- -- 97
2019-06-05 22:00:00 10.4 0 Calma 5 Norte 0 -- -- 96
2019-06-05 21:00:00 10.9 3 Norte 5 Nordeste 1.4 -- -- 94
2019-06-05 20:00:00 11.3 4 Sur 10 Sur 2 -- -- 92
2019-06-05 19:00:00 12.2 8 Sudoeste 15 Noroeste 0.8 -- -- 86
2019-06-05 18:00:00 14.7 7 Sudoeste 22 Oeste 0 -- -- 66
2019-06-05 17:00:00 14.1 10 Oeste 23 Oeste 0.2 -- -- 65
2019-06-05 16:00:00 14.3 13 Oeste 23 Oeste 0 -- -- 66
2019-06-05 15:00:00 12.4 17 Oeste 41 Oeste 0 -- -- 76
2019-06-05 14:00:00 11.7 8 Oeste 31 Oeste 0.2 -- -- 83
2019-06-05 13:00:00 14.6 5 Sudoeste 16 Sudoeste 0 -- -- 67
2019-06-05 12:00:00 12.1 9 Sudoeste 21 Sudoeste 0.6 -- -- 83
2019-06-05 11:00:00 13.6 12 Oeste 26 Oeste 0 -- -- 73
2019-06-05 10:00:00 12.1 9 Oeste 18 Oeste 0.2 -- -- 79
2019-06-05 09:00:00 11 15 Oeste 31 Oeste 0.2 -- -- 86
2019-06-05 08:00:00 9.5 3 Noroeste 9 Noroeste 0.2 -- -- 95
2019-06-05 07:00:00 8.7 2 Nordeste 10 Oeste 0 -- -- 93
2019-06-05 06:00:00 9.7 4 Sudoeste 15 Oeste 0 -- -- 89
2019-06-05 05:00:00 9.9 3 Este 12 Noroeste 0 -- -- 94
2019-06-05 04:00:00 10.1 0 Calma 5 Noroeste 0 -- -- 91
2019-06-05 03:00:00 11 0 Calma 8 Este 0 -- -- 91
2019-06-05 02:00:00 11.4 3 Sudoeste 13 Oeste 0 -- -- 88
2019-06-05 01:00:00 11.9 4 Noroeste 16 Oeste 0 -- -- 87
2019-06-05 00:00:00 12 3 Noroeste 8 Nordeste 0 -- -- 94
2019-06-04 23:00:00 12.6 2 Noroeste 6 Sudeste 0 -- -- 94
2019-06-04 22:00:00 13.2 2 Sudoeste 6 Nordeste 0.2 -- -- 92
2019-06-04 21:00:00 13.8 2 Nordeste 11 Sudeste 0.2 -- -- 86
2019-06-04 20:00:00 14.8 7 Noroeste 22 Nordeste 0 -- -- 75
2019-06-04 19:00:00 16.2 5 Oeste 28 Oeste 0 -- -- 70
2019-06-04 18:00:00 18.5 10 Oeste 26 Oeste 0 -- -- 63
2019-06-04 17:00:00 18.6 8 Oeste 26 Oeste 0 -- -- 65
2019-06-04 16:00:00 17.9 7 Oeste 24 Nordeste 0 -- -- 66
2019-06-04 15:00:00 18.9 10 Noroeste 30 Oeste 0 -- -- 65
2019-06-04 14:00:00 17.1 14 Oeste 37 Oeste 0 -- -- 72
2019-06-04 13:00:00 15.6 11 Oeste 32 Oeste 0 -- -- 81
2019-06-04 12:00:00 18.7 8 Oeste 37 Oeste 0 -- -- 69
2019-06-04 11:00:00 19.2 14 Oeste 47 Sudoeste 0 -- -- 65
2019-06-04 10:00:00 19.6 22 Sudoeste 36 Sudoeste 0 -- -- 60
2019-06-04 09:00:00 17.1 9 Sudoeste 28 Sudoeste 0 -- -- 68
2019-06-04 08:00:00 14.9 8 Noroeste 14 Noroeste 0 -- -- 89
2019-06-04 07:00:00 15.4 2 Oeste 9 Sudeste 0 -- -- 96
2019-06-04 06:00:00 15.4 5 Sudeste 7 Sudeste 0 -- -- 97
2019-06-04 05:00:00 15.6 0 Calma 8 Noroeste 0 -- -- 96
2019-06-04 04:00:00 15.7 2 Noroeste 9 Sudeste 0 -- -- 96
2019-06-04 03:00:00 15.9 0 Calma 8 Norte 0 -- -- 95
2019-06-04 02:00:00 16 3 Nordeste 4 Nordeste 0 -- -- 95
2019-06-04 01:00:00 16.1 3 Oeste 4 Oeste 0 -- -- 94
2019-06-04 00:00:00 16.3 0 Calma 5 Este 0 -- -- 94
2019-06-03 23:00:00 16.4 2 Nordeste 7 Norte 0 -- -- 91
2019-06-03 22:00:00 16.5 4 Norte 11 Nordeste 0 -- -- 91
2019-06-03 21:00:00 16.9 6 Nordeste 13 Nordeste 0 -- -- 90
2019-06-03 20:00:00 17.5 8 Norte 14 Nordeste 0 -- -- 88
2019-06-03 19:00:00 18.1 10 Nordeste 21 Norte 0 -- -- 85
2019-06-03 18:00:00 19.2 13 Nordeste 21 Nordeste 0 -- -- 83
2019-06-03 17:00:00 21 11 Nordeste 21 Nordeste 0 -- -- 78
2019-06-03 16:00:00 20.2 12 Nordeste 19 Nordeste 0 -- -- 80
2019-06-03 15:00:00 19.6 8 Nordeste 21 Nordeste 0 -- -- 82
2019-06-03 14:00:00 18.3 9 Nordeste 25 Nordeste 0 -- -- 87
2019-06-03 13:00:00 21.7 15 Nordeste 26 Norte 0 -- -- 77
2019-06-03 12:00:00 21.8 5 Este 13 Este 0 -- -- 70
2019-06-03 11:00:00 19.8 7 Sudeste 11 Sudeste 0 -- -- 75
2019-06-03 10:00:00 17.1 0 Calma 5 Sur 0 -- -- 87
2019-06-03 09:00:00 15.5 0 Calma 3 Sur 0 -- -- 93
2019-06-03 08:00:00 14.3 0 Calma 6 Nordeste 0 -- -- 97
2019-06-03 07:00:00 14 0 Calma 4 Oeste 0 -- -- 95
2019-06-03 06:00:00 14 0 Calma 5 Oeste 0 -- -- 95
2019-06-03 05:00:00 14.1 3 Nordeste -- -- 0 -- -- 94
2019-06-03 04:00:00 14.5 2 Nordeste 6 Este 0 -- -- 92
2019-06-03 03:00:00 14.8 2 Oeste 6 Oeste 0 -- -- 92
2019-06-03 02:00:00 14.6 2 Nordeste 5 Oeste 0 -- -- 92
2019-06-03 01:00:00 14.9 2 Oeste 4 Oeste 0 -- -- 90
2019-06-03 00:00:00 15.2 2 Este 4 Noroeste 0 -- -- 88
2019-06-02 23:00:00 15.8 0 Calma 3 Noroeste 0 -- -- 85
2019-06-02 22:00:00 17 2 Norte 5 Oeste 0 -- -- 82
2019-06-02 21:00:00 18.7 0 Calma 9 Norte 0 -- -- 77
2019-06-02 20:00:00 20.2 3 Sudeste 11 Sudeste 0 -- -- 71
2019-06-02 19:00:00 21.5 6 Nordeste 15 Nordeste 0 -- -- 66
2019-06-02 18:00:00 22.5 10 Nordeste 16 Nordeste 0 -- -- 68
2019-06-02 17:00:00 22.7 5 Nordeste 18 Nordeste 0 -- -- 71
2019-06-02 16:00:00 22 10 Nordeste 24 Nordeste 0 -- -- 75
2019-06-02 15:00:00 22.4 16 Nordeste 26 Norte 0 -- -- 73
2019-06-02 14:00:00 24 17 Norte 24 Nordeste 0 -- -- 67
2019-06-02 13:00:00 26 15 Norte 23 Norte 0 -- -- 59
2019-06-02 12:00:00 26.5 5 Este 9 Sudeste 0 -- -- 56
2019-06-02 11:00:00 24.5 4 Sudeste 8 Sudeste 0 -- -- 56
2019-06-02 10:00:00 20.6 2 Sudeste 5 Sur 0 -- -- 66
2019-06-02 09:00:00 16 2 Noroeste 5 Sudoeste 0 -- -- 84
2019-06-02 08:00:00 15.2 2 Noroeste 8 Oeste 0 -- -- 84
2019-06-02 07:00:00 14.4 2 Oeste 6 Oeste 0 -- -- 85
2019-06-02 06:00:00 14.4 2 Oeste 8 Oeste 0 -- -- 84
2019-06-02 05:00:00 14.4 2 Sudoeste 4 Oeste 0 -- -- 81
2019-06-02 04:00:00 14.5 0 Calma 4 Nordeste 0 -- -- 78
2019-06-02 03:00:00 14.8 0 Calma 4 Nordeste 0 -- -- 73
2019-06-02 02:00:00 15.1 0 Calma 3 Nordeste 0 -- -- 70
2019-06-02 01:00:00 15.8 0 Calma 3 Nordeste 0 -- -- 72
2019-06-02 00:00:00 17 0 Calma 3 Noroeste 0 -- -- 76
2019-06-01 23:00:00 18.2 0 Calma 3 Sudoeste 0 -- -- 75
2019-06-01 22:00:00 20.1 0 Calma 4 Oeste 0 -- -- 71
2019-06-01 21:00:00 22.5 2 Oeste 13 Nordeste 0 -- -- 67
2019-06-01 20:00:00 24.6 10 Norte 15 Norte 0 -- -- 57
2019-06-01 19:00:00 27.7 7 Norte 14 Norte 0 -- -- 51
2019-06-01 18:00:00 29.3 8 Nordeste 15 Nordeste 0 -- -- 48
2019-06-01 17:00:00 30 9 Nordeste 21 Nordeste 0 -- -- 44
2019-06-01 16:00:00 30.2 12 Nordeste 22 Nordeste 0 -- -- 44
2019-06-01 15:00:00 30.9 9 Nordeste 18 Nordeste 0 -- -- 47
2019-06-01 14:00:00 30.4 9 Nordeste 17 Nordeste 0 -- -- 46
2019-06-01 13:00:00 29.5 7 Norte 15 Norte 0 -- -- 49
2019-06-01 12:00:00 28.3 7 Nordeste 11 Norte 0 -- -- 49
2019-06-01 11:00:00 25.1 0 Calma 6 Sur 0 -- -- 46
2019-06-01 10:00:00 22.2 2 Sudeste 6 Sur 0 -- -- 52
2019-06-01 09:00:00 18.8 2 Oeste 5 Sudoeste 0 -- -- 62
2019-06-01 08:00:00 15.8 0 Calma 6 Oeste 0 -- -- 67
2019-06-01 07:00:00 15 0 Calma 7 Noroeste 0 -- -- 66
2019-06-01 06:00:00 15.4 3 Oeste 4 Oeste 0 -- -- 64
2019-06-01 05:00:00 16.5 2 Sudoeste 6 Oeste 0 -- -- 62
2019-06-01 04:00:00 16.6 3 Noroeste 6 Oeste 0 -- -- 61
2019-06-01 03:00:00 16.8 0 Calma 6 Oeste 0 -- -- 61
2019-06-01 02:00:00 17.8 4 Oeste 7 Oeste 0 -- -- 58
2019-06-01 01:00:00 17.9 0 Calma 8 Sudoeste 0 -- -- 59
2019-06-01 00:00:00 18.5 0 Calma 4 Sudeste 0 -- -- 61
2019-05-31 23:00:00 19.7 0 Calma 4 Este 0 -- -- 55
2019-05-31 22:00:00 21.9 0 Calma 7 Noroeste 0 -- -- 48
2019-05-31 21:00:00 25.1 4 Oeste 10 Este 0 -- -- 39
2019-05-31 20:00:00 29.3 4 Este 14 Sudeste 0 -- -- 32
2019-05-31 19:00:00 30.7 7 Este 15 Este 0 -- -- 30
2019-05-31 18:00:00 31.1 9 Nordeste 21 Nordeste 0 -- -- 33
2019-05-31 17:00:00 31.8 12 Nordeste 21 Nordeste 0 -- -- 32
2019-05-31 16:00:00 32.2 10 Nordeste 19 Este 0 -- -- 34
2019-05-31 15:00:00 31.8 9 Norte 18 Norte 0 -- -- 41
2019-05-31 14:00:00 31 4 Este 12 Sudeste 0 -- -- 48
2019-05-31 13:00:00 29.3 4 Sudeste 8 Nordeste 0 -- -- 45
2019-05-31 12:00:00 26.3 3 Sur 6 Sudoeste 0 -- -- 56
2019-05-31 11:00:00 23.3 3 Sudoeste 5 Sur 0 -- -- 61
2019-05-31 10:00:00 19.8 2 Sur 5 Sudoeste 0 -- -- 68
2019-05-31 09:00:00 16.4 2 Sudoeste 7 Oeste 0 -- -- 79
2019-05-31 08:00:00 13.6 3 Sudoeste 7 Oeste 0 -- -- 90
2019-05-31 07:00:00 12.6 0 Calma 5 Sudoeste 0 -- -- 92
2019-05-31 06:00:00 12.9 0 Calma 5 Oeste 0 -- -- 92
2019-05-31 05:00:00 13 2 Oeste 5 Noroeste 0 -- -- 92
2019-05-31 04:00:00 13.2 0 Calma 4 Oeste 0 -- -- 91
2019-05-31 03:00:00 13.7 2 Nordeste 3 Oeste 0 -- -- 88
2019-05-31 02:00:00 14.2 0 Calma 7 Oeste 0 -- -- 86
2019-05-31 01:00:00 14.8 2 Noroeste 4 Sur 0 -- -- 83
2019-05-31 00:00:00 15.6 0 Calma 4 Nordeste 0 -- -- 80
2019-05-30 23:00:00 17 0 Calma 4 Nordeste 0 -- -- 73
2019-05-30 22:00:00 19.2 2 Este 12 Noroeste 0 -- -- 66
2019-05-30 21:00:00 21.7 8 Norte 16 Norte 0 -- -- 57
2019-05-30 20:00:00 24.1 10 Norte 20 Norte 0 -- -- 51
2019-05-30 19:00:00 26 12 Norte 19 Nordeste 0 -- -- 51
2019-05-30 18:00:00 27.5 12 Nordeste 21 Nordeste 0 -- -- 52
2019-05-30 17:00:00 28.1 9 Nordeste 18 Norte 0 -- -- 53
2019-05-30 16:00:00 27.9 10 Nordeste 19 Nordeste 0 -- -- 59
2019-05-30 15:00:00 27.4 10 Nordeste 17 Nordeste 0 -- -- 60
2019-05-30 14:00:00 26.6 5 Sudeste 13 Norte 0 -- -- 56
2019-05-30 13:00:00 25.5 5 Este 10 Norte 0 -- -- 56
2019-05-30 12:00:00 23.9 6 Sudeste 10 Sudeste 0 -- -- 58
2019-05-30 11:00:00 20.6 2 Sur 6 Sudoeste 0 -- -- 69
2019-05-30 10:00:00 17.1 3 Sudoeste 5 Sudoeste 0 -- -- 80
2019-05-30 09:00:00 14.4 2 Oeste 5 Oeste 0 -- -- 86
2019-05-30 08:00:00 11 0 Calma 5 Noroeste 0 -- -- 99
2019-05-30 07:00:00 10.3 0 Calma 6 Oeste 0 -- -- 98
2019-05-30 06:00:00 10.3 2 Oeste 5 Oeste 0 -- -- 98
2019-05-30 05:00:00 10 0 Calma 2 Sudeste 0 -- -- 97
2019-05-30 04:00:00 10.1 0 Calma 2 Norte 0 -- -- 96
2019-05-30 03:00:00 10.5 0 Calma 2 Este 0 -- -- 95
2019-05-30 02:00:00 11 0 Calma 4 Noroeste 0 -- -- 93
2019-05-30 01:00:00 11.4 0 Calma 5 Oeste 0 -- -- 92
2019-05-30 00:00:00 12 0 Calma 3 Norte 0 -- -- 88
2019-05-29 23:00:00 13.4 0 Calma 11 Norte 0 -- -- 81
2019-05-29 22:00:00 15.1 6 Norte 17 Norte 0 -- -- 74
2019-05-29 21:00:00 16.6 10 Norte 16 Norte 0 -- -- 72
2019-05-29 20:00:00 19.2 9 Norte 20 Norte 0 -- -- 69
2019-05-29 19:00:00 21 9 Nordeste 20 Nordeste 0 -- -- 68
2019-05-29 18:00:00 21.9 11 Nordeste 22 Nordeste 0 -- -- 66
2019-05-29 17:00:00 22.3 11 Nordeste 18 Norte 0 -- -- 68
2019-05-29 16:00:00 22 12 Nordeste 20 Nordeste 0 -- -- 69
2019-05-29 15:00:00 21.6 10 Nordeste 21 Nordeste 0 -- -- 67
2019-05-29 14:00:00 21.1 12 Nordeste 22 Este 0 -- -- 65
2019-05-29 13:00:00 20.6 12 Nordeste 23 Nordeste 0 -- -- 67
2019-05-29 12:00:00 19.3 6 Norte 15 Nordeste 0 -- -- 62
2019-05-29 11:00:00 17.1 5 Sudeste 9 Sudeste 0 -- -- 65
2019-05-29 10:00:00 14.4 0 Calma 8 Sur 0 -- -- 72
2019-05-29 09:00:00 11.4 3 Sudoeste 6 Sur 0 -- -- 84
2019-05-29 08:00:00 8.8 5 Sudoeste 8 Oeste 0 -- -- 94
2019-05-29 07:00:00 8.1 0 Calma 6 Noroeste 0 -- -- 94
2019-05-29 06:00:00 9.5 3 Noroeste 6 Noroeste 0 -- -- 93
2019-05-29 05:00:00 9.8 2 Este 9 Oeste 0 -- -- 94
2019-05-29 04:00:00 9.4 2 Oeste 5 Oeste 0 -- -- 96
2019-05-29 03:00:00 9.2 2 Noroeste 4 Oeste 0 -- -- 97
2019-05-29 02:00:00 8.9 0 Calma 4 Noroeste 0 -- -- 95
2019-05-29 01:00:00 9.5 0 Calma 6 Oeste 0 -- -- 95
2019-05-29 00:00:00 9.8 0 Calma 6 Oeste 0 -- -- 91
2019-05-28 23:00:00 11 0 Calma 6 Nordeste 0 -- -- 89
2019-05-28 22:00:00 11.6 3 Este 14 Norte 0 -- -- 82
2019-05-28 21:00:00 13.4 6 Norte 16 Norte 0 -- -- 76
2019-05-28 20:00:00 15.5 8 Nordeste 22 Nordeste 0 -- -- 69
2019-05-28 19:00:00 16.9 12 Nordeste 25 Nordeste 0 -- -- 62
2019-05-28 18:00:00 17.6 12 Nordeste 25 Nordeste 0 -- -- 59
2019-05-28 17:00:00 18 15 Nordeste 28 Norte 0 -- -- 62
2019-05-28 16:00:00 18.4 15 Nordeste 31 Nordeste 0 -- -- 64
2019-05-28 15:00:00 18.1 14 Nordeste 25 Norte 0 -- -- 68
2019-05-28 14:00:00 18 12 Nordeste 22 Este 0 -- -- 64
2019-05-28 13:00:00 16.2 5 Oeste 18 Nordeste 0 -- -- 67
2019-05-28 12:00:00 15.8 6 Nordeste 13 Oeste 0 -- -- 71
2019-05-28 11:00:00 14.8 6 Oeste 15 Oeste 0 -- -- 75
2019-05-28 10:00:00 12 2 Sur 4 Sudoeste 0 -- -- 85
2019-05-28 09:00:00 10.1 0 Calma 7 Sudoeste 0 -- -- 94
2019-05-28 08:00:00 9.2 0 Calma 10 Oeste 0 -- -- 97
2019-05-28 07:00:00 8.4 3 Oeste 5 Noroeste 0 -- -- 99
2019-05-28 06:00:00 7.7 0 Calma 6 Oeste 0 -- -- 99
2019-05-28 05:00:00 7.4 0 Calma 5 Nordeste 0 -- -- 97
2019-05-28 04:00:00 8.2 0 Calma 3 Nordeste 0 -- -- 95
2019-05-28 03:00:00 9.7 0 Calma 8 Noroeste 0 -- -- 93
2019-05-28 02:00:00 10.7 3 Norte 5 Nordeste 0 -- -- 91
2019-05-28 01:00:00 11.5 3 Norte 7 Norte 0 -- -- 92
2019-05-28 00:00:00 11.7 4 Norte 8 Norte 0 -- -- 89
2019-05-27 23:00:00 12.1 4 Norte 10 Nordeste 0 -- -- 89
2019-05-27 22:00:00 12.5 5 Nordeste 13 Norte 0 -- -- 86
2019-05-27 21:00:00 13.4 7 Norte 19 Nordeste 0 -- -- 83
2019-05-27 20:00:00 14.1 8 Nordeste 17 Nordeste 0 -- -- 83
2019-05-27 19:00:00 14.5 11 Nordeste 25 Nordeste 0 -- -- 80
2019-05-27 18:00:00 15.1 17 Nordeste 28 Nordeste 0 -- -- 82
2019-05-27 17:00:00 15.7 13 Nordeste 26 Nordeste 0 -- -- 84
2019-05-27 16:00:00 16.4 11 Nordeste 25 Nordeste 0 -- -- 81
2019-05-27 15:00:00 16.7 11 Nordeste 27 Nordeste 0 -- -- 79
2019-05-27 14:00:00 16.5 14 Nordeste 27 Nordeste 0 -- -- 81
2019-05-27 13:00:00 16.6 13 Nordeste 25 Nordeste 0 -- -- 82
2019-05-27 12:00:00 15.6 4 Sudoeste 9 Este 0.2 -- -- 94
2019-05-27 11:00:00 14.6 3 Este 6 Este 0 -- -- 93
2019-05-27 10:00:00 12.8 0 Calma 3 Sur 0 -- -- 95
2019-05-27 09:00:00 12.1 0 Calma 3 Sur 0 -- -- 97
2019-05-27 08:00:00 11.6 0 Calma 3 Sur 0.2 -- -- 97
2019-05-27 07:00:00 11.3 0 Calma 3 Sudoeste 0 -- -- 96
2019-05-27 06:00:00 11.2 2 Sudoeste 4 Este 0 -- -- 97
2019-05-27 05:00:00 10.8 0 Calma 3 Sudoeste 0 -- -- 98
2019-05-27 04:00:00 10.3 2 Oeste 3 Oeste 0 -- -- 98
2019-05-27 03:00:00 9.7 0 Calma 5 Oeste 0 -- -- 97
2019-05-27 02:00:00 10.2 2 Este 4 Nordeste 0 -- -- 97
2019-05-27 01:00:00 10.4 0 Calma 6 Oeste 0 -- -- 95
2019-05-27 00:00:00 11.4 3 Nordeste 8 Norte 0 -- -- 93
2019-05-26 23:00:00 13 2 Nordeste 7 Nordeste 0 -- -- 88
2019-05-26 22:00:00 13.6 4 Norte 13 Nordeste 0 -- -- 87
2019-05-26 21:00:00 14.9 2 Este 11 Nordeste 0 -- -- 82
2019-05-26 20:00:00 15.2 8 Nordeste 18 Nordeste 0 -- -- 80
2019-05-26 19:00:00 15.9 12 Nordeste 21 Nordeste 0 -- -- 80
2019-05-26 18:00:00 17.3 10 Nordeste 20 Norte 0 -- -- 77
2019-05-26 17:00:00 19.1 12 Nordeste 22 Nordeste 0 -- -- 73
2019-05-26 16:00:00 19.3 10 Nordeste 19 Nordeste 0 -- -- 73
2019-05-26 15:00:00 18.8 10 Nordeste 18 Nordeste 0 -- -- 75
2019-05-26 14:00:00 17.4 9 Nordeste 16 Nordeste 0 -- -- 76
2019-05-26 13:00:00 15.8 3 Sudoeste 8 Oeste 0 -- -- 74
2019-05-26 12:00:00 14.7 3 Sur 10 Sur 0 -- -- 78
2019-05-26 11:00:00 13.9 6 Sur 11 Sur 0 -- -- 83
2019-05-26 10:00:00 13.1 6 Sudoeste 12 Sudoeste 0 -- -- 87
2019-05-26 09:00:00 10.6 0 Calma 4 Sur 0 -- -- 100
2019-05-26 08:00:00 8.9 0 Calma 5 Norte 0 -- -- 100
2019-05-26 07:00:00 7.4 0 Calma 4 Noroeste 0 -- -- 100
2019-05-26 06:00:00 7.2 0 Calma 3 Nordeste 0 -- -- 99
2019-05-26 05:00:00 7.4 0 Calma 3 Sudeste 0 -- -- 99
2019-05-26 04:00:00 7.7 0 Calma 5 Noroeste 0 -- -- 98
2019-05-26 03:00:00 7.9 0 Calma 6 Oeste 0 -- -- 97
2019-05-26 02:00:00 8.4 2 Oeste 8 Oeste 0 -- -- 96
2019-05-26 01:00:00 9 0 Calma 3 Norte 0 -- -- 95
2019-05-26 00:00:00 9.6 0 Calma 2 Este 0 -- -- 93